Time;durP1;ratioP1;P1;durP2;ratioP2;P2;SDS_P1;SDS_P2;PMS_P1;PMS_P2;Temp;Humidity;BMP_temperature;BMP_pressure;BME280_temperature;BME280_humidity;BME280_pressure;Samples;Min_cycle;Max_cycle;Signal;HPM_P1;HPM_P2
2023/03/08 00:00:34;;;;;;;10.88;6.30;;;4.60;84.20;;;;;;4969813;28;20321;-72
2023/03/08 00:03:01;;;;;;;12.63;6.28;;;4.60;84.30;;;;;;4969676;28;20336;-72
2023/03/08 00:05:27;;;;;;;12.18;6.20;;;4.60;84.30;;;;;;4969879;28;20083;-71
2023/03/08 00:07:53;;;;;;;12.10;6.68;;;4.70;84.30;;;;;;4968984;28;20260;-71
2023/03/08 00:10:19;;;;;;;11.48;5.82;;;4.70;84.30;;;;;;4969449;28;20043;-71
2023/03/08 00:12:45;;;;;;;12.80;6.32;;;4.70;84.20;;;;;;4952099;28;20043;-71
2023/03/08 00:15:11;;;;;;;12.45;6.15;;;4.70;84.20;;;;;;4969456;28;20045;-71
2023/03/08 00:17:38;;;;;;;11.82;6.70;;;4.70;84.30;;;;;;4968930;28;20042;-72
2023/03/08 00:20:05;;;;;;;10.70;6.00;;;4.80;84.10;;;;;;4976278;28;20140;-72
2023/03/08 00:22:35;;;;;;;11.27;6.00;;;4.80;84.00;;;;;;4959587;28;20040;-73
2023/03/08 00:25:02;;;;;;;15.35;6.35;;;4.80;84.10;;;;;;4952927;28;20325;-72
2023/03/08 00:27:27;;;;;;;14.35;6.38;;;4.90;84.20;;;;;;4966466;28;20313;-71
2023/03/08 00:29:53;;;;;;;11.73;6.55;;;4.90;84.20;;;;;;4966457;28;20046;-71
2023/03/08 06:01:27;;;;;;;14.35;7.70;;;4.70;89.00;;;;;;5987965;23;20019;31
2023/03/08 06:03:59;;;;;;;17.60;8.23;;;4.70;89.20;;;;;;4926333;29;20054;-74
2023/03/08 06:06:29;;;;;;;16.17;8.15;;;4.70;89.20;;;;;;4934278;29;20050;-73
2023/03/08 06:08:58;;;;;;;15.82;8.38;;;4.80;89.30;;;;;;4939387;29;20039;-73
2023/03/08 06:11:24;;;;;;;14.38;7.95;;;4.80;89.40;;;;;;4933900;29;20063;-71
2023/03/08 06:13:53;;;;;;;15.43;8.38;;;4.80;89.40;;;;;;4944237;29;20063;-71
2023/03/08 06:16:20;;;;;;;14.40;8.52;;;4.80;89.60;;;;;;4946701;29;20067;-71
2023/03/08 06:18:47;;;;;;;18.40;8.95;;;4.90;89.80;;;;;;4940099;29;20043;-71
2023/03/08 06:21:20;;;;;;;15.98;8.77;;;4.90;89.60;;;;;;4940853;29;20034;-73
2023/03/08 06:23:49;;;;;;;16.85;9.32;;;4.90;89.90;;;;;;4944338;29;20106;-72
2023/03/08 06:26:15;;;;;;;16.38;9.43;;;5.00;89.80;;;;;;4943727;29;20035;-72
2023/03/08 06:28:42;;;;;;;17.55;9.35;;;5.00;89.80;;;;;;4944189;29;20046;-72
2023/03/08 06:31:14;;;;;;;18.42;8.90;;;5.10;90.00;;;;;;4943608;29;20087;-72
2023/03/08 06:33:40;;;;;;;18.73;8.88;;;5.10;89.70;;;;;;4944254;29;20107;-71
2023/03/08 06:36:15;;;;;;;19.05;9.75;;;5.10;89.70;;;;;;4930529;29;20028;-72
2023/03/08 06:38:43;;;;;;;17.85;8.48;;;5.10;90.10;;;;;;4937377;29;20213;-71
2023/03/08 06:41:11;;;;;;;17.48;8.95;;;5.10;89.60;;;;;;4946394;29;20040;-69
2023/03/08 06:43:37;;;;;;;17.87;9.20;;;5.10;89.70;;;;;;4949525;29;20032;-73
2023/03/08 06:46:08;;;;;;;17.67;8.68;;;5.10;89.80;;;;;;4944887;29;20085;-71
2023/03/08 06:48:34;;;;;;;16.98;9.00;;;5.20;89.70;;;;;;4945358;29;20216;-70
2023/03/08 06:51:01;;;;;;;17.02;8.98;;;5.10;89.70;;;;;;4943650;29;20031;-71
2023/03/08 06:53:26;;;;;;;17.58;8.63;;;5.10;89.70;;;;;;4943687;29;20054;-71
2023/03/08 06:56:05;;;;;;;15.57;8.85;;;5.10;89.60;;;;;;4934368;29;20047;-71
2023/03/08 06:58:34;;;;;;;18.23;9.27;;;5.20;89.40;;;;;;4928193;29;20028;-71
2023/03/08 07:00:59;;;;;;;16.85;9.20;;;5.20;89.30;;;;;;4936554;29;20079;-71
2023/03/08 07:03:26;;;;;;;20.15;9.07;;;5.10;89.30;;;;;;4944653;29;20055;-71
2023/03/08 07:05:52;;;;;;;21.00;8.45;;;5.20;89.50;;;;;;4944847;29;20047;-72
2023/03/08 07:08:18;;;;;;;17.10;9.05;;;5.20;89.20;;;;;;4943870;29;20024;-70
2023/03/08 07:10:43;;;;;;;17.65;8.57;;;5.20;89.10;;;;;;4944703;29;20032;-71
2023/03/08 07:13:09;;;;;;;18.90;8.98;;;5.30;89.10;;;;;;4944075;29;20340;-71
2023/03/08 07:15:38;;;;;;;21.55;9.02;;;5.30;88.90;;;;;;4944121;29;20055;-70
2023/03/08 07:18:04;;;;;;;14.63;8.07;;;5.40;88.90;;;;;;4943440;29;20035;-70
2023/03/08 07:20:29;;;;;;;15.15;8.30;;;5.40;89.00;;;;;;4944213;29;20035;-74
2023/03/08 07:22:56;;;;;;;16.73;8.32;;;5.40;89.00;;;;;;4944100;29;20035;-73
2023/03/08 07:25:21;;;;;;;16.20;8.77;;;5.50;88.70;;;;;;4943548;29;20085;-73
2023/03/08 07:27:47;;;;;;;15.23;8.40;;;5.50;88.70;;;;;;4944529;29;20027;-71
2023/03/08 07:30:14;;;;;;;15.05;7.55;;;5.50;88.60;;;;;;4944111;29;20036;-73
2023/03/08 07:32:41;;;;;;;15.90;8.38;;;5.50;88.50;;;;;;4947914;29;20083;-71
2023/03/08 07:35:09;;;;;;;17.05;8.35;;;5.60;88.70;;;;;;4947686;29;20024;-72
2023/03/08 07:37:35;;;;;;;14.93;8.02;;;5.60;88.40;;;;;;4948243;29;20031;-74
2023/03/08 07:40:01;;;;;;;17.20;8.60;;;5.70;88.50;;;;;;4947337;29;20047;-71
2023/03/08 07:42:26;;;;;;;16.95;8.32;;;5.70;88.30;;;;;;4947140;29;20213;-71
2023/03/08 07:44:58;;;;;;;20.27;8.75;;;5.70;88.40;;;;;;4946913;29;20182;-71
2023/03/08 07:47:24;;;;;;;17.80;8.43;;;5.80;88.40;;;;;;4947468;29;20099;-71
2023/03/08 07:49:49;;;;;;;14.52;8.55;;;5.80;88.30;;;;;;4947440;29;20039;-72
2023/03/08 07:52:15;;;;;;;17.58;8.55;;;5.80;88.40;;;;;;4947257;29;20313;-70
2023/03/08 07:54:42;;;;;;;18.15;8.65;;;5.80;88.30;;;;;;4947588;29;20102;-72
2023/03/08 07:57:14;;;;;;;15.15;8.57;;;5.80;88.60;;;;;;4946529;29;20038;-70
2023/03/08 07:59:41;;;;;;;15.15;8.45;;;5.80;89.40;;;;;;4943386;29;20059;-73
2023/03/08 08:02:11;;;;;;;20.80;8.55;;;5.90;89.40;;;;;;4947260;29;20058;-72
2023/03/08 08:04:36;;;;;;;17.55;8.82;;;5.90;88.80;;;;;;4934248;29;20266;-71
2023/03/08 08:07:02;;;;;;;18.15;8.70;;;6.00;88.50;;;;;;4947089;29;20035;-71
2023/03/08 08:09:28;;;;;;;16.42;8.75;;;6.10;88.30;;;;;;4947748;29;20050;-71
2023/03/08 08:11:54;;;;;;;20.45;9.60;;;6.10;88.20;;;;;;4947440;29;20127;-71
2023/03/08 08:14:20;;;;;;;20.25;9.10;;;6.10;88.40;;;;;;4947363;29;20296;-71
2023/03/08 08:16:45;;;;;;;16.77;9.38;;;6.10;88.70;;;;;;4947589;29;20320;-72
2023/03/08 08:19:13;;;;;;;15.27;8.30;;;6.20;88.70;;;;;;4947087;29;20035;-72
2023/03/08 08:21:39;;;;;;;17.20;8.50;;;6.30;89.40;;;;;;4947549;29;20035;-72
2023/03/08 08:24:06;;;;;;;15.02;8.60;;;6.40;88.90;;;;;;4946659;29;20040;-71
2023/03/08 08:26:31;;;;;;;16.05;8.23;;;6.40;89.40;;;;;;4962275;28;20261;-72
2023/03/08 08:28:57;;;;;;;15.02;8.30;;;6.40;89.60;;;;;;4947458;29;20071;-72
2023/03/08 08:31:29;;;;;;;15.38;8.10;;;6.40;90.20;;;;;;4946445;29;20031;-72
2023/03/08 08:33:56;;;;;;;14.55;7.95;;;6.30;90.50;;;;;;4947282;29;20094;-73
2023/03/08 08:36:22;;;;;;;17.25;8.85;;;6.40;90.50;;;;;;4946286;29;20036;-71
2023/03/08 08:38:48;;;;;;;13.98;8.13;;;6.30;90.60;;;;;;4947224;29;20044;-73
2023/03/08 08:41:16;;;;;;;15.82;7.88;;;6.50;90.80;;;;;;4946816;29;20297;-72
2023/03/08 08:43:43;;;;;;;20.15;8.57;;;6.60;91.00;;;;;;4946325;29;20104;-72
2023/03/08 08:46:09;;;;;;;17.73;8.50;;;6.60;91.50;;;;;;4945689;29;20360;-71
2023/03/08 08:48:36;;;;;;;21.08;8.82;;;6.60;91.30;;;;;;4947320;29;20035;-73
2023/03/08 08:51:03;;;;;;;16.10;8.67;;;6.60;91.30;;;;;;4946024;29;20104;-73
2023/03/08 08:53:29;;;;;;;14.50;8.30;;;6.60;91.80;;;;;;4946863;29;20054;-76
2023/03/08 08:55:55;;;;;;;16.67;8.75;;;6.60;92.00;;;;;;4961191;29;20309;-76
2023/03/08 08:58:20;;;;;;;16.60;9.18;;;6.60;91.70;;;;;;4947075;29;20360;-76
2023/03/08 09:00:46;;;;;;;18.25;8.98;;;6.60;92.40;;;;;;4947077;29;20015;-73
2023/03/08 09:03:12;;;;;;;15.73;9.57;;;6.60;92.60;;;;;;4945675;29;20083;-73
2023/03/08 09:05:40;;;;;;;17.10;9.27;;;6.60;92.70;;;;;;4947058;29;20210;-75
2023/03/08 09:08:07;;;;;;;17.45;9.77;;;6.60;93.40;;;;;;4945832;29;20035;-73
2023/03/08 09:10:35;;;;;;;19.88;9.57;;;6.60;92.50;;;;;;4941736;29;20124;-71
2023/03/08 09:13:01;;;;;;;19.55;9.57;;;6.60;91.90;;;;;;4945700;29;20306;-72
2023/03/08 09:15:27;;;;;;;17.00;9.75;;;6.50;91.70;;;;;;4946756;29;20042;-73
2023/03/08 09:17:53;;;;;;;15.55;9.30;;;6.40;91.90;;;;;;4946260;29;20365;-73
2023/03/08 09:20:19;;;;;;;17.58;9.80;;;6.40;91.90;;;;;;4946119;29;20086;-71
2023/03/08 09:22:45;;;;;;;18.40;9.70;;;6.40;91.70;;;;;;4946240;29;20023;-72
2023/03/08 09:25:11;;;;;;;17.48;9.30;;;6.30;92.10;;;;;;4945549;29;20103;-75
2023/03/08 09:27:39;;;;;;;21.17;9.70;;;6.30;92.00;;;;;;4928731;29;20274;-75
2023/03/08 09:30:07;;;;;;;25.30;9.98;;;6.30;92.30;;;;;;4945359;29;20020;-76
2023/03/08 09:32:34;;;;;;;17.92;10.35;;;6.30;92.10;;;;;;4945832;29;20039;-72
2023/03/08 09:35:00;;;;;;;18.17;9.93;;;6.40;91.80;;;;;;4945590;29;20095;-73
2023/03/08 09:37:25;;;;;;;18.55;9.48;;;6.40;91.70;;;;;;4946247;29;20331;-72
2023/03/08 09:39:51;;;;;;;18.73;10.05;;;6.50;91.70;;;;;;4946063;29;20031;-72
2023/03/08 09:42:22;;;;;;;19.67;10.48;;;6.70;91.60;;;;;;4945888;29;20042;-73
2023/03/08 09:45:09;;;;;;;19.33;9.75;;;6.70;91.40;;;;;;4946053;29;20028;-71
2023/03/08 09:47:43;;;;;;;19.20;10.10;;;6.80;91.30;;;;;;4945147;29;20335;-73
2023/03/08 09:50:12;;;;;;;16.65;9.93;;;6.90;91.40;;;;;;4944496;29;20040;-72
2023/03/08 09:53:15;;;;;;;16.50;10.30;;;7.00;91.20;;;;;;4945322;29;20034;-71
2023/03/08 09:56:05;;;;;;;18.98;10.15;;;7.10;91.00;;;;;;4929900;29;20051;-73
2023/03/08 09:58:49;;;;;;;19.75;10.50;;;7.20;91.10;;;;;;4945485;29;20031;-72
2023/03/08 10:01:46;;;;;;;17.83;10.77;;;7.30;91.10;;;;;;4945144;29;20114;-72
2023/03/08 10:04:23;;;;;;;17.83;9.87;;;7.40;90.90;;;;;;4931567;29;20367;-72
2023/03/08 10:07:09;;;;;;;15.35;9.73;;;7.40;90.90;;;;;;4932988;29;20301;-71
2023/03/08 10:09:43;;;;;;;17.77;10.10;;;7.60;91.00;;;;;;4944822;29;20061;-74
2023/03/08 10:12:18;;;;;;;18.08;10.02;;;7.80;90.70;;;;;;4946828;29;20090;-72
2023/03/08 10:14:49;;;;;;;16.33;9.50;;;8.00;90.50;;;;;;4945351;29;20050;-73
2023/03/08 10:17:19;;;;;;;21.20;10.43;;;8.10;90.40;;;;;;4943709;29;20161;-71
2023/03/08 10:20:06;;;;;;;18.20;9.93;;;8.20;90.60;;;;;;4945252;29;20035;-74
2023/03/08 10:22:37;;;;;;;18.98;10.20;;;8.30;90.40;;;;;;4944882;29;20023;-71
2023/03/08 10:25:27;;;;;;;17.67;9.52;;;8.20;90.50;;;;;;4944144;29;20047;-71
2023/03/08 10:27:56;;;;;;;16.25;8.95;;;8.30;91.00;;;;;;4939762;29;20074;-71
2023/03/08 10:30:24;;;;;;;;;;;8.50;91.00;;;;;;4945174;29;20028;-72
2023/03/08 10:32:55;;;;;;;10.15;6.13;;;8.70;91.00;;;;;;4944807;29;19921;-72
2023/03/08 10:36:01;;;;;;;7.93;4.80;;;8.90;92.40;;;;;;4944656;29;20123;-71
2023/03/08 10:38:30;;;;;;;11.43;4.57;;;9.20;93.10;;;;;;4942925;29;20044;-71
2023/03/08 10:41:22;;;;;;;8.70;4.30;;;9.40;93.60;;;;;;4945081;29;20114;-72
2023/03/08 10:43:51;;;;;;;6.70;3.45;;;9.70;93.80;;;;;;4942885;29;20103;-71
2023/03/08 10:46:22;;;;;;;7.20;3.97;;;9.90;94.10;;;;;;4945134;29;20036;-71
2023/03/08 10:48:49;;;;;;;8.70;3.50;;;10.20;93.80;;;;;;4951332;29;20051;-72
2023/03/08 10:51:16;;;;;;;5.82;3.22;;;10.40;93.60;;;;;;4950983;29;20043;-71
2023/03/08 10:53:54;;;;;;;5.63;3.30;;;10.70;93.40;;;;;;4947433;29;20310;-73
2023/03/08 10:56:33;;;;;;;5.22;2.95;;;11.10;93.10;;;;;;4944196;29;20111;-70
2023/03/08 10:58:59;;;;;;;6.43;2.88;;;11.50;92.60;;;;;;4944666;29;20027;-70
2023/03/08 11:01:26;;;;;;;4.75;2.80;;;11.80;92.20;;;;;;4944190;29;20028;-72
2023/03/08 11:04:00;;;;;;;5.07;2.47;;;11.90;92.30;;;;;;4936093;29;20060;-71
2023/03/08 11:06:26;;;;;;;4.90;2.40;;;12.00;92.30;;;;;;4941011;29;20130;-72
2023/03/08 11:08:54;;;;;;;4.30;2.00;;;12.40;92.00;;;;;;4944346;29;20043;-71
2023/03/08 11:11:20;;;;;;;4.45;2.08;;;12.60;91.70;;;;;;4943717;29;20051;-71
2023/03/08 11:13:48;;;;;;;3.65;1.50;;;12.70;91.60;;;;;;4944104;29;20027;-71
2023/03/08 11:16:51;;;;;;;3.40;1.45;;;12.70;91.60;;;;;;4942542;29;20245;-73
2023/03/08 11:19:36;;;;;;;3.70;1.50;;;12.80;91.60;;;;;;4936833;29;20035;-70
2023/03/08 11:22:39;;;;;;;4.43;1.45;;;12.90;91.60;;;;;;4943926;29;20040;-71
2023/03/08 11:25:18;;;;;;;6.32;1.15;;;12.70;91.80;;;;;;4943829;29;20333;-71
2023/03/08 11:28:17;;;;;;;3.50;1.13;;;12.60;92.20;;;;;;4944172;29;20329;-71
2023/03/08 11:31:04;;;;;;;2.83;0.80;;;12.50;92.60;;;;;;4943994;29;20097;-71
2023/03/08 11:33:57;;;;;;;1.85;0.70;;;12.50;92.70;;;;;;4944107;29;20068;-72
2023/03/08 11:36:37;;;;;;;2.72;0.80;;;12.40;93.20;;;;;;4942323;29;20546;-72
2023/03/08 11:39:27;;;;;;;2.95;0.70;;;12.40;93.10;;;;;;4943866;29;20051;-73
2023/03/08 11:42:19;;;;;;;3.00;0.70;;;12.40;93.30;;;;;;4944621;29;20099;-72
2023/03/08 11:45:22;;;;;;;2.15;0.70;;;12.30;93.40;;;;;;4944187;29;20373;-71
2023/03/08 11:47:56;;;;;;;4.72;0.65;;;12.50;93.20;;;;;;4943605;29;20098;-71
2023/03/08 11:50:44;;;;;;;2.50;1.08;;;12.70;93.10;;;;;;4932986;29;20035;-73
2023/03/08 11:53:22;;;;;;;2.03;0.80;;;12.90;92.80;;;;;;4943316;29;20131;-71
2023/03/08 11:56:09;;;;;;;3.28;0.70;;;12.90;92.70;;;;;;4944311;29;20032;-71
2023/03/08 11:59:06;;;;;;;1.23;0.43;;;12.90;92.90;;;;;;4944127;29;20327;-71
2023/03/08 12:01:40;;;;;;;2.60;0.60;;;12.70;93.00;;;;;;4936188;29;20071;-75
2023/03/08 12:04:12;;;;;;;2.45;0.60;;;12.80;93.10;;;;;;4943406;29;20042;-73
2023/03/08 12:06:40;;;;;;;1.60;0.50;;;13.00;92.90;;;;;;4944232;29;20044;-74
2023/03/08 12:09:21;;;;;;;2.40;0.60;;;13.00;92.80;;;;;;4943407;29;20044;-72
2023/03/08 12:11:53;;;;;;;2.20;0.52;;;12.90;93.00;;;;;;4944098;29;20045;-75
2023/03/08 12:14:29;;;;;;;1.33;0.50;;;12.90;93.00;;;;;;4943871;29;20071;-73
2023/03/08 12:17:23;;;;;;;3.53;0.50;;;13.00;93.00;;;;;;4944203;29;20027;-72
2023/03/08 12:19:50;;;;;;;3.00;0.60;;;13.10;93.10;;;;;;4950832;29;20142;-71
2023/03/08 12:22:37;;;;;;;1.40;0.55;;;13.10;92.90;;;;;;4948902;29;20082;-71
2023/03/08 12:25:13;;;;;;;2.38;0.80;;;13.10;93.00;;;;;;4940592;29;20226;-72
2023/03/08 12:28:13;;;;;;;1.65;0.63;;;13.10;93.20;;;;;;4946126;29;20027;-71
2023/03/08 12:30:46;;;;;;;1.73;0.75;;;13.20;93.20;;;;;;4926615;29;20051;-70
2023/03/08 12:33:14;;;;;;;4.05;0.68;;;13.20;93.20;;;;;;4960497;28;20205;-70
2023/03/08 12:35:58;;;;;;;2.35;0.57;;;13.30;93.20;;;;;;4945867;29;20099;-69
2023/03/08 12:38:36;;;;;;;2.72;0.70;;;13.20;93.20;;;;;;4960801;28;20050;-71
2023/03/08 12:41:05;;;;;;;3.55;0.55;;;13.20;93.30;;;;;;4948752;28;20028;-72
2023/03/08 12:43:34;;;;;;;3.20;0.40;;;13.10;93.40;;;;;;4946692;29;20301;-72
2023/03/08 12:45:59;;;;;;;1.95;0.65;;;13.00;93.70;;;;;;4946915;29;20035;-72
2023/03/08 12:48:30;;;;;;;4.70;0.70;;;13.00;93.80;;;;;;4931611;29;20036;-72
2023/03/08 12:51:11;;;;;;;2.05;0.63;;;13.10;93.90;;;;;;4946966;29;20043;-73
2023/03/08 12:53:49;;;;;;;1.35;0.40;;;13.30;93.60;;;;;;4946640;29;20043;-71
2023/03/08 12:56:52;;;;;;;1.73;0.40;;;13.60;93.20;;;;;;4945828;29;20023;-71
2023/03/08 12:59:18;;;;;;;2.80;0.43;;;13.70;93.10;;;;;;4934158;29;20270;-70
2023/03/08 13:01:59;;;;;;;1.90;0.68;;;13.90;92.90;;;;;;4946063;29;20031;-71
2023/03/08 13:04:32;;;;;;;1.50;0.40;;;14.00;92.70;;;;;;4945989;29;20051;-70
2023/03/08 13:07:38;;;;;;;2.50;0.60;;;14.30;92.30;;;;;;4946604;29;20230;-70
2023/03/08 13:10:07;;;;;;;2.08;0.40;;;14.40;92.30;;;;;;4945834;29;20351;-73
2023/03/08 13:13:03;;;;;;;2.20;0.40;;;14.40;92.30;;;;;;4957163;29;20364;-71
2023/03/08 13:15:28;;;;;;;1.70;0.40;;;14.20;92.70;;;;;;4941206;29;20039;-71
2023/03/08 13:17:59;;;;;;;2.70;0.47;;;13.90;92.90;;;;;;4967251;28;20105;-70
2023/03/08 13:20:59;;;;;;;1.27;0.40;;;13.90;93.00;;;;;;4946035;29;20032;-69
2023/03/08 13:23:31;;;;;;;1.55;0.30;;;14.00;93.10;;;;;;4943403;29;20091;-71
2023/03/08 13:26:03;;;;;;;2.30;0.35;;;14.30;93.10;;;;;;4946131;29;20024;-71
2023/03/08 13:28:41;;;;;;;1.92;0.40;;;14.80;92.10;;;;;;4945724;29;20314;-70
2023/03/08 13:31:15;;;;;;;;;;;15.20;91.50;;;;;;4946057;29;20200;-71
2023/03/08 13:33:47;;;;;;;1.77;0.63;;;15.20;91.40;;;;;;4946210;29;19917;-73
2023/03/08 13:36:31;;;;;;;1.75;0.70;;;15.40;91.20;;;;;;4944706;29;20217;-71
2023/03/08 13:39:29;;;;;;;2.15;0.32;;;15.40;91.30;;;;;;4933609;29;20035;-73
2023/03/08 13:42:10;;;;;;;2.97;0.60;;;15.60;91.00;;;;;;4945161;29;20047;-71
2023/03/08 13:44:39;;;;;;;2.08;0.30;;;15.60;91.20;;;;;;4960493;29;20035;-73
2023/03/08 13:47:25;;;;;;;2.17;0.60;;;15.70;91.10;;;;;;4944964;29;20103;-68
2023/03/08 13:49:53;;;;;;;1.77;0.60;;;16.30;90.40;;;;;;4945690;29;20051;-69
2023/03/08 13:52:23;;;;;;;1.02;0.30;;;16.60;90.10;;;;;;4945291;29;20051;-73
2023/03/08 13:54:52;;;;;;;2.25;0.60;;;16.60;89.80;;;;;;4945700;29;20051;-70
2023/03/08 13:57:30;;;;;;;2.75;0.52;;;16.50;89.50;;;;;;4944851;29;20543;-70
2023/03/08 13:59:59;;;;;;;2.42;0.35;;;15.90;90.50;;;;;;4945331;29;20035;-70
2023/03/08 14:02:30;;;;;;;1.23;0.32;;;15.40;91.10;;;;;;4945044;29;20067;-69
2023/03/08 14:04:57;;;;;;;1.65;0.40;;;15.20;91.50;;;;;;4945581;29;20035;-70
2023/03/08 14:07:28;;;;;;;2.30;0.38;;;15.50;91.40;;;;;;4944885;29;20035;-70
2023/03/08 14:09:54;;;;;;;0.93;0.20;;;16.30;90.50;;;;;;4956395;29;20043;-70
2023/03/08 14:12:25;;;;;;;1.08;0.30;;;17.10;88.70;;;;;;4940737;29;20032;-71
2023/03/08 14:14:58;;;;;;;1.60;0.43;;;18.00;86.80;;;;;;4944527;29;20031;-71
2023/03/08 14:17:26;;;;;;;1.60;0.40;;;18.20;84.80;;;;;;4944335;29;20332;-73
2023/03/08 14:19:58;;;;;;;0.70;0.20;;;17.60;85.90;;;;;;4944966;29;20206;-74
2023/03/08 14:22:27;;;;;;;0.77;0.20;;;16.90;87.70;;;;;;4945056;29;20353;-69
2023/03/08 14:25:03;;;;;;;2.38;0.20;;;16.30;89.40;;;;;;4945022;29;20040;-72
2023/03/08 14:27:41;;;;;;;0.82;0.20;;;15.80;90.60;;;;;;4944962;29;20028;-70
2023/03/08 14:30:23;;;;;;;1.10;0.35;;;15.20;91.30;;;;;;4944315;29;20039;-76
2023/03/08 14:33:13;;;;;;;0.43;0.10;;;15.10;91.70;;;;;;4944512;29;20049;-70
2023/03/08 14:35:42;;;;;;;2.50;0.30;;;14.90;91.90;;;;;;4945132;29;20027;-70
2023/03/08 14:38:22;;;;;;;1.40;0.20;;;14.70;92.20;;;;;;4944628;29;20046;-70
2023/03/08 14:40:49;;;;;;;1.88;0.30;;;14.70;92.40;;;;;;4954830;29;20103;-69
2023/03/08 14:43:18;;;;;;;1.05;0.10;;;14.70;92.60;;;;;;4942814;29;20268;-69
2023/03/08 14:45:56;;;;;;;1.13;0.20;;;14.80;92.30;;;;;;4944485;29;20074;-69
2023/03/08 14:48:27;;;;;;;0.47;0.13;;;14.70;92.70;;;;;;4943766;29;20082;-69
2023/03/08 14:51:01;;;;;;;0.70;0.20;;;14.50;92.80;;;;;;4947315;29;20040;-69
2023/03/08 14:53:32;;;;;;;0.73;0.20;;;14.50;93.20;;;;;;4948674;29;20035;-68
2023/03/08 14:55:59;;;;;;;0.70;0.15;;;14.40;93.30;;;;;;4947474;29;20027;-70
2023/03/08 14:58:28;;;;;;;0.90;0.20;;;14.50;93.10;;;;;;4943825;29;20039;-70
2023/03/08 15:00:56;;;;;;;0.82;0.20;;;14.40;93.10;;;;;;4943873;29;20039;-68
2023/03/08 15:03:22;;;;;;;1.00;0.10;;;14.40;93.50;;;;;;4942988;29;20118;-68
2023/03/08 15:05:48;;;;;;;0.88;0.10;;;14.20;93.90;;;;;;4943211;29;20024;-70
2023/03/08 15:08:15;;;;;;;1.15;0.20;;;14.10;94.30;;;;;;4943238;29;20071;-70
2023/03/08 15:10:41;;;;;;;0.60;0.20;;;14.10;94.50;;;;;;4943769;29;20103;-69
2023/03/08 15:13:19;;;;;;;0.70;0.30;;;14.20;94.60;;;;;;4942483;29;20192;-70
2023/03/08 15:15:45;;;;;;;1.93;0.30;;;14.30;94.50;;;;;;4943212;29;20317;-69
2023/03/08 15:18:11;;;;;;;1.90;0.30;;;14.30;94.60;;;;;;4943894;29;20444;-71
2023/03/08 15:20:43;;;;;;;1.38;0.30;;;14.30;94.70;;;;;;4944415;29;20040;-70
2023/03/08 15:23:31;;;;;;;1.10;0.20;;;14.80;94.30;;;;;;4943478;29;20210;-69
2023/03/08 15:25:58;;;;;;;3.97;0.65;;;15.90;92.80;;;;;;4943992;29;20032;-69
2023/03/08 15:28:24;;;;;;;1.52;0.28;;;17.10;91.00;;;;;;4943902;29;20225;-70
2023/03/08 15:30:51;;;;;;;1.00;0.22;;;17.90;89.50;;;;;;4943432;29;20041;-70
2023/03/08 15:33:18;;;;;;;0.50;0.20;;;18.10;88.70;;;;;;4943383;29;20087;-69
2023/03/08 15:35:44;;;;;;;2.13;0.22;;;17.70;88.50;;;;;;4944503;29;20115;-71
2023/03/08 15:38:14;;;;;;;0.80;0.30;;;17.10;90.10;;;;;;4944207;29;20038;-70
2023/03/08 15:40:41;;;;;;;1.27;0.30;;;16.30;91.20;;;;;;4944515;29;20027;-69
2023/03/08 15:43:07;;;;;;;1.55;0.20;;;15.60;92.30;;;;;;4943578;29;20124;-70
2023/03/08 15:45:32;;;;;;;0.82;0.20;;;15.10;93.20;;;;;;4946103;29;20309;-68
2023/03/08 15:48:01;;;;;;;1.45;0.40;;;14.60;93.90;;;;;;4943691;29;20070;-70
2023/03/08 15:50:27;;;;;;;0.80;0.20;;;14.40;94.30;;;;;;4944057;29;20041;-70
2023/03/08 15:52:54;;;;;;;1.13;0.30;;;14.20;94.60;;;;;;4944012;29;20035;-71
2023/03/08 15:55:22;;;;;;;0.73;0.22;;;14.10;94.80;;;;;;4947078;29;20036;-71
2023/03/08 15:57:48;;;;;;;0.90;0.20;;;14.00;95.00;;;;;;4947772;29;20036;-72
2023/03/08 16:00:16;;;;;;;1.08;0.30;;;13.90;95.20;;;;;;4947371;29;20075;-70
2023/03/08 16:02:42;;;;;;;1.15;0.30;;;13.80;95.40;;;;;;4947506;29;20199;-72
2023/03/08 16:05:10;;;;;;;2.10;0.30;;;13.80;95.40;;;;;;4947242;29;20031;-71
2023/03/08 16:07:36;;;;;;;1.52;0.30;;;13.70;95.50;;;;;;4948069;29;20027;-72
2023/03/08 16:10:04;;;;;;;3.92;0.50;;;13.70;95.60;;;;;;4947270;29;20055;-74
2023/03/08 16:12:30;;;;;;;1.20;0.30;;;13.70;95.80;;;;;;4947751;29;20047;-72
2023/03/08 16:14:56;;;;;;;1.13;0.30;;;13.60;95.80;;;;;;4947361;29;20031;-71
2023/03/08 16:17:24;;;;;;;1.25;0.20;;;13.70;95.80;;;;;;4946820;29;20083;-72
2023/03/08 16:19:51;;;;;;;1.20;0.30;;;13.60;95.70;;;;;;4962969;29;20027;-72
2023/03/08 16:22:16;;;;;;;1.65;0.20;;;13.60;95.80;;;;;;4947469;29;20077;-72
2023/03/08 16:24:42;;;;;;;1.88;0.30;;;13.60;95.80;;;;;;4947512;29;20309;-69
2023/03/08 16:27:08;;;;;;;2.55;0.40;;;13.50;96.30;;;;;;4946744;29;20031;-70
2023/03/08 16:29:34;;;;;;;1.98;0.40;;;13.50;97.20;;;;;;4947409;29;20031;-70
2023/03/08 16:32:01;;;;;;;1.60;0.50;;;13.30;97.50;;;;;;4947331;29;20039;-73
2023/03/08 16:34:28;;;;;;;1.35;0.40;;;13.10;97.70;;;;;;4947130;29;20043;-70
2023/03/08 16:36:54;;;;;;;1.35;0.52;;;13.10;97.60;;;;;;4947175;29;20059;-70
2023/03/08 16:39:20;;;;;;;2.25;0.50;;;13.10;97.40;;;;;;4946676;29;20031;-72
2023/03/08 16:41:46;;;;;;;1.20;0.30;;;13.20;97.30;;;;;;4946285;29;20024;-70
2023/03/08 16:44:21;;;;;;;0.77;0.30;;;13.20;97.30;;;;;;4946699;29;20039;-69
2023/03/08 16:46:47;;;;;;;1.88;0.20;;;13.10;97.30;;;;;;4957867;29;20047;-70
2023/03/08 16:49:14;;;;;;;3.08;0.43;;;13.10;97.70;;;;;;4946906;29;20067;-67
2023/03/08 16:51:40;;;;;;;0.90;0.32;;;13.10;98.00;;;;;;4946706;29;20036;-70
2023/03/08 16:54:06;;;;;;;1.83;0.60;;;13.00;98.60;;;;;;4946377;29;20090;-70
2023/03/08 16:56:31;;;;;;;1.85;0.40;;;12.90;99.10;;;;;;4946983;29;20031;-69
2023/03/08 16:58:58;;;;;;;0.93;0.20;;;12.80;99.90;;;;;;4946988;29;20095;-69
2023/03/08 17:01:25;;;;;;;1.20;0.30;;;12.70;99.90;;;;;;4945943;29;20055;-70
2023/03/08 17:03:51;;;;;;;1.02;0.30;;;12.50;99.90;;;;;;4946258;29;20230;-69
2023/03/08 17:06:19;;;;;;;0.65;0.25;;;12.30;99.90;;;;;;4945881;29;20028;-70
2023/03/08 17:08:46;;;;;;;1.45;0.30;;;12.10;99.90;;;;;;4946581;29;20035;-70
2023/03/08 17:11:16;;;;;;;1.17;0.47;;;12.00;99.90;;;;;;4946433;29;20306;-71
2023/03/08 17:13:42;;;;;;;2.13;0.60;;;11.90;99.90;;;;;;4947458;29;20097;-70
2023/03/08 17:16:11;;;;;;;1.00;0.28;;;11.80;99.90;;;;;;4946568;29;20067;-69
2023/03/08 17:18:37;;;;;;;0.90;0.35;;;11.80;99.90;;;;;;4946876;29;20083;-73
2023/03/08 17:21:04;;;;;;;1.02;0.32;;;11.90;99.90;;;;;;4946652;29;20023;-70
2023/03/08 17:23:31;;;;;;;2.45;0.52;;;11.90;99.90;;;;;;4947031;29;20139;-72
2023/03/08 17:25:57;;;;;;;2.25;0.40;;;12.00;99.90;;;;;;4946823;29;20058;-72
2023/03/08 17:28:22;;;;;;;1.45;0.40;;;12.10;99.90;;;;;;4946207;29;20301;-68
2023/03/08 17:30:48;;;;;;;0.95;0.30;;;12.20;99.90;;;;;;4946002;29;20036;-71
2023/03/08 17:33:14;;;;;;;1.10;0.30;;;12.20;99.90;;;;;;4946268;29;20035;-71
2023/03/08 17:35:40;;;;;;;2.20;0.40;;;12.20;99.90;;;;;;4946279;29;20058;-71
2023/03/08 17:38:06;;;;;;;2.95;0.60;;;12.20;99.90;;;;;;4945813;29;20116;-72
2023/03/08 17:40:32;;;;;;;1.83;0.60;;;12.20;99.90;;;;;;4946889;29;20218;-72
2023/03/08 17:43:01;;;;;;;2.88;1.00;;;12.20;99.90;;;;;;4946528;29;20055;-71
2023/03/08 17:45:27;;;;;;;;;;;12.20;99.90;;;;;;4946965;29;20083;-72
2023/03/08 17:47:59;;;;;;;4.70;1.98;;;12.20;99.90;;;;;;4934586;29;20200;-71
2023/03/08 17:50:28;;;;;;;1.77;0.65;;;12.20;99.90;;;;;;4945638;29;20271;-70
2023/03/08 17:52:54;;;;;;;1.73;0.63;;;12.10;99.90;;;;;;4946223;29;20035;-71
2023/03/08 17:55:21;;;;;;;2.17;0.50;;;12.20;99.90;;;;;;4944534;29;20258;-69
2023/03/08 17:57:46;;;;;;;1.75;0.80;;;12.20;99.90;;;;;;4945873;29;20043;-70
2023/03/08 18:00:13;;;;;;;1.33;0.60;;;12.10;99.90;;;;;;4945092;29;20031;-69
2023/03/08 18:02:38;;;;;;;1.70;0.60;;;12.10;99.90;;;;;;4945213;29;20058;-70
2023/03/08 18:05:05;;;;;;;1.58;0.45;;;12.10;99.90;;;;;;4932924;29;20083;-70
2023/03/08 18:07:31;;;;;;;1.00;0.30;;;12.10;99.90;;;;;;4944781;29;20294;-70
2023/03/08 18:09:57;;;;;;;3.25;0.40;;;12.10;99.90;;;;;;4945566;29;20116;-70
2023/03/08 18:12:23;;;;;;;2.38;0.55;;;12.10;99.90;;;;;;4945116;29;20043;-70
2023/03/08 18:14:52;;;;;;;4.15;0.80;;;12.00;99.90;;;;;;4945115;29;20213;-68
2023/03/08 18:17:18;;;;;;;4.03;0.73;;;12.00;99.90;;;;;;4944404;29;20380;-69
2023/03/08 18:19:45;;;;;;;1.85;0.57;;;12.00;99.90;;;;;;4945387;29;20050;-70
2023/03/08 18:22:11;;;;;;;1.23;0.50;;;12.00;99.90;;;;;;4944716;29;20044;-70
2023/03/08 18:24:37;;;;;;;3.72;0.65;;;11.90;99.90;;;;;;4931874;29;20028;-69
2023/03/08 18:27:04;;;;;;;2.17;0.60;;;11.90;99.90;;;;;;4944769;29;20099;-72
2023/03/08 18:29:34;;;;;;;1.92;1.00;;;11.90;99.90;;;;;;4945261;29;20039;-71
2023/03/08 18:32:00;;;;;;;1.75;0.85;;;11.90;99.90;;;;;;4945417;29;20039;-70
2023/03/08 18:34:27;;;;;;;1.77;0.82;;;11.80;99.90;;;;;;4945445;29;20311;-70
2023/03/08 18:36:55;;;;;;;1.98;1.00;;;11.80;99.90;;;;;;4957364;29;20091;-69